sensor_id;sensor_type;location;lat;lon;timestamp;temperature;humidity
40291;DHT22;26000;48.304;13.626;2023-05-17T00:00:09;11.70;99.90
40291;DHT22;26000;48.304;13.626;2023-05-17T00:02:35;11.80;99.90
40291;DHT22;26000;48.304;13.626;2023-05-17T00:05:01;11.70;99.90
40291;DHT22;26000;48.304;13.626;2023-05-17T00:07:26;11.60;99.90
40291;DHT22;26000;48.304;13.626;2023-05-17T00:09:52;11.60;99.90
40291;DHT22;26000;48.304;13.626;2023-05-17T00:12:18;11.50;99.90
40291;DHT22;26000;48.304;13.626;2023-05-17T00:14:43;11.50;99.90
40291;DHT22;26000;48.304;13.626;2023-05-17T00:17:09;11.50;99.90
40291;DHT22;26000;48.304;13.626;2023-05-17T00:19:34;11.50;99.90
40291;DHT22;26000;48.304;13.626;2023-05-17T00:22:00;11.50;99.90
40291;DHT22;26000;48.304;13.626;2023-05-17T00:24:25;11.40;99.90
40291;DHT22;26000;48.304;13.626;2023-05-17T00:26:51;11.40;99.90
40291;DHT22;26000;48.304;13.626;2023-05-17T00:29:17;11.40;99.90
40291;DHT22;26000;48.304;13.626;2023-05-17T00:31:43;11.50;99.90
40291;DHT22;26000;48.304;13.626;2023-05-17T00:34:08;11.40;99.90
40291;DHT22;26000;48.304;13.626;2023-05-17T00:36:34;11.40;99.90
40291;DHT22;26000;48.304;13.626;2023-05-17T00:39:00;11.30;99.90
40291;DHT22;26000;48.304;13.626;2023-05-17T00:41:25;11.30;99.90
40291;DHT22;26000;48.304;13.626;2023-05-17T00:43:51;11.40;99.90
40291;DHT22;26000;48.304;13.626;2023-05-17T00:46:16;11.40;99.90
40291;DHT22;26000;48.304;13.626;2023-05-17T00:48:42;11.40;99.90
40291;DHT22;26000;48.304;13.626;2023-05-17T00:51:08;11.30;99.90
40291;DHT22;26000;48.304;13.626;2023-05-17T00:53:34;11.30;99.90
40291;DHT22;26000;48.304;13.626;2023-05-17T00:56:02;11.40;99.90
40291;DHT22;26000;48.304;13.626;2023-05-17T00:58:28;11.40;99.90
40291;DHT22;26000;48.304;13.626;2023-05-17T01:00:54;11.40;99.90
40291;DHT22;26000;48.304;13.626;2023-05-17T01:03:20;11.40;99.90
40291;DHT22;26000;48.304;13.626;2023-05-17T01:05:49;11.40;99.90
40291;DHT22;26000;48.304;13.626;2023-05-17T01:08:15;11.40;99.90
40291;DHT22;26000;48.304;13.626;2023-05-17T01:10:56;11.40;99.90
40291;DHT22;26000;48.304;13.626;2023-05-17T01:13:31;11.50;99.90
40291;DHT22;26000;48.304;13.626;2023-05-17T01:18:40;11.40;99.90
40291;DHT22;26000;48.304;13.626;2023-05-17T01:24:24;11.40;99.90
40291;DHT22;26000;48.304;13.626;2023-05-17T01:26:52;11.30;99.90
40291;DHT22;26000;48.304;13.626;2023-05-17T01:29:22;11.30;99.90
40291;DHT22;26000;48.304;13.626;2023-05-17T01:31:50;11.30;99.90
40291;DHT22;26000;48.304;13.626;2023-05-17T01:34:29;11.30;99.90
40291;DHT22;26000;48.304;13.626;2023-05-17T01:36:55;11.20;99.90
40291;DHT22;26000;48.304;13.626;2023-05-17T01:39:21;11.10;99.90
40291;DHT22;26000;48.304;13.626;2023-05-17T01:42:09;11.10;99.90
40291;DHT22;26000;48.304;13.626;2023-05-17T01:50:16;11.10;99.90
40291;DHT22;26000;48.304;13.626;2023-05-17T01:52:49;11.10;99.90
40291;DHT22;26000;48.304;13.626;2023-05-17T01:55:46;11.10;99.90
40291;DHT22;26000;48.304;13.626;2023-05-17T01:58:15;11.00;99.90
40291;DHT22;26000;48.304;13.626;2023-05-17T02:00:43;11.00;99.90
40291;DHT22;26000;48.304;13.626;2023-05-17T02:03:20;11.00;99.90
40291;DHT22;26000;48.304;13.626;2023-05-17T02:05:45;11.00;99.90
40291;DHT22;26000;48.304;13.626;2023-05-17T02:08:11;11.00;99.90
40291;DHT22;26000;48.304;13.626;2023-05-17T02:10:37;11.00;99.90
40291;DHT22;26000;48.304;13.626;2023-05-17T02:13:03;11.00;99.90
40291;DHT22;26000;48.304;13.626;2023-05-17T02:15:29;11.00;99.90
40291;DHT22;26000;48.304;13.626;2023-05-17T02:17:55;11.00;99.90
40291;DHT22;26000;48.304;13.626;2023-05-17T02:20:21;10.90;99.90
40291;DHT22;26000;48.304;13.626;2023-05-17T02:22:46;10.90;99.90
40291;DHT22;26000;48.304;13.626;2023-05-17T02:25:12;10.90;99.90
40291;DHT22;26000;48.304;13.626;2023-05-17T02:27:37;11.00;99.90
40291;DHT22;26000;48.304;13.626;2023-05-17T02:30:03;11.00;99.90
40291;DHT22;26000;48.304;13.626;2023-05-17T02:32:30;11.00;99.90
40291;DHT22;26000;48.304;13.626;2023-05-17T02:34:56;10.90;99.90
40291;DHT22;26000;48.304;13.626;2023-05-17T02:37:21;10.90;99.90
40291;DHT22;26000;48.304;13.626;2023-05-17T02:39:47;10.90;99.90
40291;DHT22;26000;48.304;13.626;2023-05-17T02:42:13;10.90;99.90
40291;DHT22;26000;48.304;13.626;2023-05-17T02:44:38;10.90;99.90
40291;DHT22;26000;48.304;13.626;2023-05-17T02:47:04;10.90;99.90
40291;DHT22;26000;48.304;13.626;2023-05-17T02:49:30;10.80;99.90
40291;DHT22;26000;48.304;13.626;2023-05-17T02:51:55;10.80;99.90
40291;DHT22;26000;48.304;13.626;2023-05-17T02:54:21;10.90;99.90
40291;DHT22;26000;48.304;13.626;2023-05-17T02:56:47;10.90;99.90
40291;DHT22;26000;48.304;13.626;2023-05-17T02:59:12;10.90;99.90
40291;DHT22;26000;48.304;13.626;2023-05-17T03:01:38;10.90;99.90
40291;DHT22;26000;48.304;13.626;2023-05-17T03:04:04;10.90;99.90
40291;DHT22;26000;48.304;13.626;2023-05-17T03:06:29;10.80;99.90
40291;DHT22;26000;48.304;13.626;2023-05-17T03:08:55;10.90;99.90
40291;DHT22;26000;48.304;13.626;2023-05-17T03:11:21;10.80;99.90
40291;DHT22;26000;48.304;13.626;2023-05-17T03:13:47;10.80;99.90
40291;DHT22;26000;48.304;13.626;2023-05-17T03:16:16;10.80;99.90
40291;DHT22;26000;48.304;13.626;2023-05-17T03:18:42;10.80;99.90
40291;DHT22;26000;48.304;13.626;2023-05-17T03:21:07;10.80;99.90
40291;DHT22;26000;48.304;13.626;2023-05-17T03:23:33;10.80;99.90
40291;DHT22;26000;48.304;13.626;2023-05-17T03:25:59;10.70;99.90
40291;DHT22;26000;48.304;13.626;2023-05-17T03:28:25;10.80;99.90
40291;DHT22;26000;48.304;13.626;2023-05-17T03:30:50;10.80;99.90
40291;DHT22;26000;48.304;13.626;2023-05-17T03:33:17;10.70;99.90
40291;DHT22;26000;48.304;13.626;2023-05-17T03:35:43;10.70;99.90
40291;DHT22;26000;48.304;13.626;2023-05-17T03:38:11;10.70;99.90
40291;DHT22;26000;48.304;13.626;2023-05-17T03:40:37;10.70;99.90
40291;DHT22;26000;48.304;13.626;2023-05-17T03:43:02;10.60;99.90
40291;DHT22;26000;48.304;13.626;2023-05-17T03:45:28;10.60;99.90
40291;DHT22;26000;48.304;13.626;2023-05-17T03:47:54;10.50;99.90
40291;DHT22;26000;48.304;13.626;2023-05-17T03:50:20;10.50;99.90
40291;DHT22;26000;48.304;13.626;2023-05-17T03:52:45;10.50;99.90
40291;DHT22;26000;48.304;13.626;2023-05-17T03:55:11;10.60;99.90
40291;DHT22;26000;48.304;13.626;2023-05-17T03:57:37;10.60;99.90
40291;DHT22;26000;48.304;13.626;2023-05-17T04:00:03;10.50;99.90
40291;DHT22;26000;48.304;13.626;2023-05-17T04:02:37;10.60;99.90
40291;DHT22;26000;48.304;13.626;2023-05-17T04:05:03;10.60;99.90
40291;DHT22;26000;48.304;13.626;2023-05-17T04:07:28;10.50;99.90
40291;DHT22;26000;48.304;13.626;2023-05-17T04:09:55;10.60;99.90
40291;DHT22;26000;48.304;13.626;2023-05-17T04:12:23;10.60;99.90
40291;DHT22;26000;48.304;13.626;2023-05-17T04:14:49;10.60;99.90
40291;DHT22;26000;48.304;13.626;2023-05-17T04:17:15;10.60;99.90
40291;DHT22;26000;48.304;13.626;2023-05-17T04:19:40;10.60;99.90
40291;DHT22;26000;48.304;13.626;2023-05-17T04:22:06;10.50;99.90
40291;DHT22;26000;48.304;13.626;2023-05-17T04:24:31;10.60;99.90
40291;DHT22;26000;48.304;13.626;2023-05-17T04:26:57;10.60;99.90
40291;DHT22;26000;48.304;13.626;2023-05-17T04:29:24;10.60;99.90
40291;DHT22;26000;48.304;13.626;2023-05-17T04:31:49;10.60;99.90
40291;DHT22;26000;48.304;13.626;2023-05-17T04:34:15;10.60;99.90
40291;DHT22;26000;48.304;13.626;2023-05-17T04:36:41;10.60;99.90
40291;DHT22;26000;48.304;13.626;2023-05-17T04:39:06;10.60;99.90
40291;DHT22;26000;48.304;13.626;2023-05-17T04:41:32;10.60;99.90
40291;DHT22;26000;48.304;13.626;2023-05-17T04:43:57;10.50;99.90
40291;DHT22;26000;48.304;13.626;2023-05-17T04:46:23;10.50;99.90
40291;DHT22;26000;48.304;13.626;2023-05-17T04:48:49;10.60;99.90
40291;DHT22;26000;48.304;13.626;2023-05-17T04:51:14;10.60;99.90
40291;DHT22;26000;48.304;13.626;2023-05-17T04:53:40;10.60;99.90
40291;DHT22;26000;48.304;13.626;2023-05-17T04:56:06;10.50;99.90
40291;DHT22;26000;48.304;13.626;2023-05-17T04:58:35;10.50;99.90
40291;DHT22;26000;48.304;13.626;2023-05-17T05:01:00;10.50;99.90
40291;DHT22;26000;48.304;13.626;2023-05-17T05:03:26;10.50;99.90
40291;DHT22;26000;48.304;13.626;2023-05-17T05:05:52;10.50;99.90
40291;DHT22;26000;48.304;13.626;2023-05-17T05:08:17;10.60;99.90
40291;DHT22;26000;48.304;13.626;2023-05-17T05:10:43;10.60;99.90
40291;DHT22;26000;48.304;13.626;2023-05-17T05:13:10;10.60;99.90
40291;DHT22;26000;48.304;13.626;2023-05-17T05:15:36;10.60;99.90
40291;DHT22;26000;48.304;13.626;2023-05-17T05:18:02;10.60;99.90
40291;DHT22;26000;48.304;13.626;2023-05-17T05:20:28;10.60;99.90
40291;DHT22;26000;48.304;13.626;2023-05-17T05:22:53;10.70;99.90
40291;DHT22;26000;48.304;13.626;2023-05-17T05:25:19;10.70;99.90
40291;DHT22;26000;48.304;13.626;2023-05-17T05:27:45;10.70;99.90
40291;DHT22;26000;48.304;13.626;2023-05-17T05:30:11;10.70;99.90
40291;DHT22;26000;48.304;13.626;2023-05-17T05:32:37;10.70;99.90
40291;DHT22;26000;48.304;13.626;2023-05-17T05:35:04;10.70;99.90
40291;DHT22;26000;48.304;13.626;2023-05-17T05:37:30;10.70;99.90
40291;DHT22;26000;48.304;13.626;2023-05-17T05:39:55;10.70;99.90
40291;DHT22;26000;48.304;13.626;2023-05-17T05:42:21;10.70;99.90
40291;DHT22;26000;48.304;13.626;2023-05-17T05:44:47;10.70;99.90
40291;DHT22;26000;48.304;13.626;2023-05-17T05:47:13;10.70;99.90
40291;DHT22;26000;48.304;13.626;2023-05-17T05:49:38;10.70;99.90
40291;DHT22;26000;48.304;13.626;2023-05-17T05:52:04;10.70;99.90
40291;DHT22;26000;48.304;13.626;2023-05-17T05:54:30;10.70;99.90
40291;DHT22;26000;48.304;13.626;2023-05-17T05:56:55;10.80;99.90
40291;DHT22;26000;48.304;13.626;2023-05-17T05:59:21;10.80;99.90
40291;DHT22;26000;48.304;13.626;2023-05-17T06:01:47;10.80;99.90
40291;DHT22;26000;48.304;13.626;2023-05-17T06:04:12;10.80;99.90
40291;DHT22;26000;48.304;13.626;2023-05-17T06:06:38;10.80;99.90
40291;DHT22;26000;48.304;13.626;2023-05-17T06:09:03;10.80;99.90
40291;DHT22;26000;48.304;13.626;2023-05-17T06:11:31;10.80;99.90
40291;DHT22;26000;48.304;13.626;2023-05-17T06:13:57;10.70;99.90
40291;DHT22;26000;48.304;13.626;2023-05-17T06:16:22;10.80;99.90
40291;DHT22;26000;48.304;13.626;2023-05-17T06:18:48;10.80;99.90
40291;DHT22;26000;48.304;13.626;2023-05-17T06:21:14;10.80;99.90
40291;DHT22;26000;48.304;13.626;2023-05-17T06:23:40;10.80;99.90
40291;DHT22;26000;48.304;13.626;2023-05-17T06:26:06;10.90;99.90
40291;DHT22;26000;48.304;13.626;2023-05-17T06:28:35;10.90;99.90
40291;DHT22;26000;48.304;13.626;2023-05-17T06:31:01;10.90;99.90
40291;DHT22;26000;48.304;13.626;2023-05-17T06:33:26;10.90;99.90
40291;DHT22;26000;48.304;13.626;2023-05-17T06:35:53;11.00;99.90
40291;DHT22;26000;48.304;13.626;2023-05-17T06:38:19;11.00;99.90
40291;DHT22;26000;48.304;13.626;2023-05-17T06:40:44;10.90;99.90
40291;DHT22;26000;48.304;13.626;2023-05-17T06:43:10;11.00;99.90
40291;DHT22;26000;48.304;13.626;2023-05-17T06:45:35;11.00;99.90
40291;DHT22;26000;48.304;13.626;2023-05-17T06:48:01;11.00;99.90
40291;DHT22;26000;48.304;13.626;2023-05-17T06:50:27;11.00;99.90
40291;DHT22;26000;48.304;13.626;2023-05-17T06:52:53;11.00;99.90
40291;DHT22;26000;48.304;13.626;2023-05-17T06:55:18;11.00;99.90
40291;DHT22;26000;48.304;13.626;2023-05-17T06:57:44;10.90;99.90
40291;DHT22;26000;48.304;13.626;2023-05-17T07:00:10;10.90;99.90
40291;DHT22;26000;48.304;13.626;2023-05-17T07:02:37;11.00;99.90
40291;DHT22;26000;48.304;13.626;2023-05-17T07:05:04;11.00;99.90
40291;DHT22;26000;48.304;13.626;2023-05-17T07:07:31;11.10;99.90
40291;DHT22;26000;48.304;13.626;2023-05-17T07:09:56;11.10;99.90
40291;DHT22;26000;48.304;13.626;2023-05-17T07:12:22;11.10;99.90
40291;DHT22;26000;48.304;13.626;2023-05-17T07:14:48;11.20;99.90
40291;DHT22;26000;48.304;13.626;2023-05-17T07:17:13;11.20;99.90
40291;DHT22;26000;48.304;13.626;2023-05-17T07:19:39;11.10;99.90
40291;DHT22;26000;48.304;13.626;2023-05-17T07:22:05;11.20;99.90
40291;DHT22;26000;48.304;13.626;2023-05-17T07:24:30;11.20;99.90
40291;DHT22;26000;48.304;13.626;2023-05-17T07:26:56;11.20;99.90
40291;DHT22;26000;48.304;13.626;2023-05-17T07:29:22;11.20;99.90
40291;DHT22;26000;48.304;13.626;2023-05-17T07:31:48;11.20;99.90
40291;DHT22;26000;48.304;13.626;2023-05-17T07:34:14;11.20;99.90
40291;DHT22;26000;48.304;13.626;2023-05-17T07:36:40;11.20;99.90
40291;DHT22;26000;48.304;13.626;2023-05-17T07:39:05;11.30;99.90
40291;DHT22;26000;48.304;13.626;2023-05-17T07:41:31;11.30;99.90
40291;DHT22;26000;48.304;13.626;2023-05-17T07:43:58;11.30;99.90
40291;DHT22;26000;48.304;13.626;2023-05-17T07:46:24;11.30;99.90
40291;DHT22;26000;48.304;13.626;2023-05-17T07:48:49;11.30;99.90
40291;DHT22;26000;48.304;13.626;2023-05-17T07:51:15;11.20;99.90
40291;DHT22;26000;48.304;13.626;2023-05-17T07:53:41;11.20;99.90
40291;DHT22;26000;48.304;13.626;2023-05-17T07:56:06;11.20;99.90
40291;DHT22;26000;48.304;13.626;2023-05-17T07:58:32;11.20;99.90
40291;DHT22;26000;48.304;13.626;2023-05-17T08:00:58;11.20;99.90
40291;DHT22;26000;48.304;13.626;2023-05-17T08:03:24;11.10;99.90
40291;DHT22;26000;48.304;13.626;2023-05-17T08:05:49;11.20;99.90
40291;DHT22;26000;48.304;13.626;2023-05-17T08:08:15;11.20;99.90
40291;DHT22;26000;48.304;13.626;2023-05-17T08:10:40;11.10;99.90
40291;DHT22;26000;48.304;13.626;2023-05-17T08:13:07;11.20;99.90
40291;DHT22;26000;48.304;13.626;2023-05-17T08:15:33;11.30;99.90
40291;DHT22;26000;48.304;13.626;2023-05-17T08:17:59;11.30;99.90
40291;DHT22;26000;48.304;13.626;2023-05-17T08:20:24;11.30;99.90
40291;DHT22;26000;48.304;13.626;2023-05-17T08:22:50;11.30;99.90
40291;DHT22;26000;48.304;13.626;2023-05-17T08:25:15;11.30;99.90
40291;DHT22;26000;48.304;13.626;2023-05-17T08:27:41;11.40;99.90
40291;DHT22;26000;48.304;13.626;2023-05-17T08:30:07;11.40;99.90
40291;DHT22;26000;48.304;13.626;2023-05-17T08:32:33;11.40;99.90
40291;DHT22;26000;48.304;13.626;2023-05-17T08:34:58;11.50;99.90
40291;DHT22;26000;48.304;13.626;2023-05-17T08:37:24;11.50;99.90
40291;DHT22;26000;48.304;13.626;2023-05-17T08:39:50;11.60;99.90
40291;DHT22;26000;48.304;13.626;2023-05-17T08:42:20;11.60;99.90
40291;DHT22;26000;48.304;13.626;2023-05-17T08:44:46;11.80;99.90
40291;DHT22;26000;48.304;13.626;2023-05-17T08:47:13;11.80;99.90
40291;DHT22;26000;48.304;13.626;2023-05-17T08:49:54;11.90;99.90
40291;DHT22;26000;48.304;13.626;2023-05-17T08:52:22;12.10;99.90
40291;DHT22;26000;48.304;13.626;2023-05-17T08:54:47;12.20;99.90
40291;DHT22;26000;48.304;13.626;2023-05-17T08:57:15;12.30;99.90
40291;DHT22;26000;48.304;13.626;2023-05-17T08:59:43;12.40;99.90
40291;DHT22;26000;48.304;13.626;2023-05-17T09:02:09;12.40;99.90
40291;DHT22;26000;48.304;13.626;2023-05-17T09:04:35;12.50;99.90
40291;DHT22;26000;48.304;13.626;2023-05-17T09:07:00;12.50;99.90
40291;DHT22;26000;48.304;13.626;2023-05-17T09:09:26;12.70;99.90
40291;DHT22;26000;48.304;13.626;2023-05-17T09:11:52;12.70;99.90
40291;DHT22;26000;48.304;13.626;2023-05-17T09:14:18;12.70;99.90
40291;DHT22;26000;48.304;13.626;2023-05-17T09:16:43;12.80;99.90
40291;DHT22;26000;48.304;13.626;2023-05-17T09:19:14;12.80;99.90
40291;DHT22;26000;48.304;13.626;2023-05-17T09:21:45;12.60;99.90
40291;DHT22;26000;48.304;13.626;2023-05-17T09:24:11;12.60;99.90
40291;DHT22;26000;48.304;13.626;2023-05-17T09:26:41;12.50;99.90
40291;DHT22;26000;48.304;13.626;2023-05-17T09:29:16;12.50;99.90
40291;DHT22;26000;48.304;13.626;2023-05-17T09:31:42;12.60;99.90
40291;DHT22;26000;48.304;13.626;2023-05-17T09:34:09;12.70;99.90
40291;DHT22;26000;48.304;13.626;2023-05-17T09:36:36;12.80;99.90
40291;DHT22;26000;48.304;13.626;2023-05-17T09:39:05;12.80;99.90
40291;DHT22;26000;48.304;13.626;2023-05-17T09:41:39;12.90;99.90
40291;DHT22;26000;48.304;13.626;2023-05-17T09:44:08;12.90;99.90
40291;DHT22;26000;48.304;13.626;2023-05-17T09:46:34;12.90;99.90
40291;DHT22;26000;48.304;13.626;2023-05-17T09:49:01;12.90;99.90
40291;DHT22;26000;48.304;13.626;2023-05-17T09:51:32;12.80;99.90
40291;DHT22;26000;48.304;13.626;2023-05-17T09:53:58;12.70;99.90
40291;DHT22;26000;48.304;13.626;2023-05-17T09:56:27;12.70;99.90
40291;DHT22;26000;48.304;13.626;2023-05-17T09:58:53;12.70;99.90
40291;DHT22;26000;48.304;13.626;2023-05-17T10:01:20;12.80;99.90
40291;DHT22;26000;48.304;13.626;2023-05-17T10:03:46;12.90;99.90
40291;DHT22;26000;48.304;13.626;2023-05-17T10:06:15;13.00;99.90
40291;DHT22;26000;48.304;13.626;2023-05-17T10:08:45;13.00;99.90
40291;DHT22;26000;48.304;13.626;2023-05-17T10:11:13;13.20;99.90
40291;DHT22;26000;48.304;13.626;2023-05-17T10:14:02;13.10;99.90
40291;DHT22;26000;48.304;13.626;2023-05-17T10:16:32;13.20;99.90
40291;DHT22;26000;48.304;13.626;2023-05-17T10:19:02;13.20;99.90
40291;DHT22;26000;48.304;13.626;2023-05-17T10:21:29;13.20;99.90
40291;DHT22;26000;48.304;13.626;2023-05-17T10:23:58;13.30;99.90
40291;DHT22;26000;48.304;13.626;2023-05-17T10:26:26;13.30;99.90
40291;DHT22;26000;48.304;13.626;2023-05-17T10:28:56;13.50;99.90
40291;DHT22;26000;48.304;13.626;2023-05-17T10:31:28;13.60;99.90
40291;DHT22;26000;48.304;13.626;2023-05-17T10:33:55;13.80;99.90
40291;DHT22;26000;48.304;13.626;2023-05-17T10:36:23;13.90;99.90
40291;DHT22;26000;48.304;13.626;2023-05-17T10:38:50;14.00;99.90
40291;DHT22;26000;48.304;13.626;2023-05-17T10:41:18;13.80;99.90
40291;DHT22;26000;48.304;13.626;2023-05-17T10:43:46;13.80;99.90
40291;DHT22;26000;48.304;13.626;2023-05-17T10:46:16;13.90;99.90
40291;DHT22;26000;48.304;13.626;2023-05-17T10:48:43;14.00;99.90
40291;DHT22;26000;48.304;13.626;2023-05-17T10:51:10;14.20;99.90
40291;DHT22;26000;48.304;13.626;2023-05-17T10:56:33;14.40;99.90
40291;DHT22;26000;48.304;13.626;2023-05-17T10:59:23;14.40;99.90
40291;DHT22;26000;48.304;13.626;2023-05-17T11:02:08;14.50;99.90
40291;DHT22;26000;48.304;13.626;2023-05-17T11:04:46;14.50;99.90
40291;DHT22;26000;48.304;13.626;2023-05-17T11:09:51;14.50;99.90
40291;DHT22;26000;48.304;13.626;2023-05-17T11:15:12;14.50;99.90
40291;DHT22;26000;48.304;13.626;2023-05-17T11:23:03;14.30;99.90
40291;DHT22;26000;48.304;13.626;2023-05-17T11:25:34;14.20;99.90
40291;DHT22;26000;48.304;13.626;2023-05-17T11:28:05;14.10;99.90
40291;DHT22;26000;48.304;13.626;2023-05-17T11:30:32;14.10;99.90
40291;DHT22;26000;48.304;13.626;2023-05-17T11:35:31;14.00;99.90
40291;DHT22;26000;48.304;13.626;2023-05-17T11:38:18;13.80;99.90
40291;DHT22;26000;48.304;13.626;2023-05-17T11:40:45;13.90;99.90
40291;DHT22;26000;48.304;13.626;2023-05-17T11:45:48;13.80;99.90
40291;DHT22;26000;48.304;13.626;2023-05-17T11:48:16;14.00;99.90
40291;DHT22;26000;48.304;13.626;2023-05-17T11:50:43;14.10;99.90
40291;DHT22;26000;48.304;13.626;2023-05-17T11:53:09;14.10;99.90
40291;DHT22;26000;48.304;13.626;2023-05-17T11:55:43;14.00;99.90
40291;DHT22;26000;48.304;13.626;2023-05-17T11:58:12;14.00;99.90
40291;DHT22;26000;48.304;13.626;2023-05-17T12:00:39;14.00;99.90
40291;DHT22;26000;48.304;13.626;2023-05-17T12:05:45;14.00;99.90
40291;DHT22;26000;48.304;13.626;2023-05-17T12:08:13;13.90;99.90
40291;DHT22;26000;48.304;13.626;2023-05-17T12:10:44;14.10;99.90
40291;DHT22;26000;48.304;13.626;2023-05-17T12:13:10;14.10;99.90
40291;DHT22;26000;48.304;13.626;2023-05-17T12:15:36;14.00;99.90
40291;DHT22;26000;48.304;13.626;2023-05-17T12:18:02;14.10;99.90
40291;DHT22;26000;48.304;13.626;2023-05-17T12:20:28;14.10;99.90
40291;DHT22;26000;48.304;13.626;2023-05-17T12:22:57;14.10;99.90
40291;DHT22;26000;48.304;13.626;2023-05-17T12:25:23;14.20;99.90
40291;DHT22;26000;48.304;13.626;2023-05-17T12:28:13;14.20;99.90
40291;DHT22;26000;48.304;13.626;2023-05-17T12:30:39;14.30;99.90
40291;DHT22;26000;48.304;13.626;2023-05-17T12:33:05;14.10;99.90
40291;DHT22;26000;48.304;13.626;2023-05-17T12:35:31;14.10;99.90
40291;DHT22;26000;48.304;13.626;2023-05-17T12:37:58;13.90;99.90
40291;DHT22;26000;48.304;13.626;2023-05-17T12:40:24;13.90;99.90
40291;DHT22;26000;48.304;13.626;2023-05-17T12:42:50;13.80;99.90
40291;DHT22;26000;48.304;13.626;2023-05-17T12:45:16;13.80;99.90
40291;DHT22;26000;48.304;13.626;2023-05-17T12:47:42;13.70;99.90
40291;DHT22;26000;48.304;13.626;2023-05-17T12:50:08;13.60;99.90
40291;DHT22;26000;48.304;13.626;2023-05-17T12:52:34;13.60;99.90
40291;DHT22;26000;48.304;13.626;2023-05-17T12:55:04;13.50;99.90
40291;DHT22;26000;48.304;13.626;2023-05-17T12:57:30;13.50;99.90
40291;DHT22;26000;48.304;13.626;2023-05-17T12:59:56;13.40;99.90
40291;DHT22;26000;48.304;13.626;2023-05-17T13:02:22;13.30;99.90
40291;DHT22;26000;48.304;13.626;2023-05-17T13:04:48;13.20;99.90
40291;DHT22;26000;48.304;13.626;2023-05-17T13:07:23;13.20;99.90
40291;DHT22;26000;48.304;13.626;2023-05-17T13:09:49;13.30;99.90
40291;DHT22;26000;48.304;13.626;2023-05-17T13:12:20;13.40;99.90
40291;DHT22;26000;48.304;13.626;2023-05-17T13:14:47;13.50;99.90
40291;DHT22;26000;48.304;13.626;2023-05-17T13:17:24;13.60;99.90
40291;DHT22;26000;48.304;13.626;2023-05-17T13:19:50;13.60;99.90
40291;DHT22;26000;48.304;13.626;2023-05-17T13:22:16;13.60;99.90
40291;DHT22;26000;48.304;13.626;2023-05-17T13:24:42;13.60;99.90
40291;DHT22;26000;48.304;13.626;2023-05-17T13:27:09;13.80;99.90
40291;DHT22;26000;48.304;13.626;2023-05-17T13:29:37;13.90;99.90
40291;DHT22;26000;48.304;13.626;2023-05-17T13:32:05;14.00;99.90
40291;DHT22;26000;48.304;13.626;2023-05-17T13:34:31;14.10;99.90
40291;DHT22;26000;48.304;13.626;2023-05-17T13:36:56;14.20;99.90
40291;DHT22;26000;48.304;13.626;2023-05-17T13:39:22;14.30;99.90
40291;DHT22;26000;48.304;13.626;2023-05-17T13:41:48;14.30;99.90
40291;DHT22;26000;48.304;13.626;2023-05-17T13:44:13;14.20;99.90
40291;DHT22;26000;48.304;13.626;2023-05-17T13:46:39;14.30;99.90
40291;DHT22;26000;48.304;13.626;2023-05-17T13:49:05;14.30;99.90
40291;DHT22;26000;48.304;13.626;2023-05-17T13:51:35;14.30;99.90
40291;DHT22;26000;48.304;13.626;2023-05-17T13:54:02;14.30;99.90
40291;DHT22;26000;48.304;13.626;2023-05-17T13:56:28;14.40;99.90
40291;DHT22;26000;48.304;13.626;2023-05-17T13:58:53;14.40;99.90
40291;DHT22;26000;48.304;13.626;2023-05-17T14:01:19;14.40;99.90
40291;DHT22;26000;48.304;13.626;2023-05-17T14:03:45;14.50;99.90
40291;DHT22;26000;48.304;13.626;2023-05-17T14:06:11;14.40;99.90
40291;DHT22;26000;48.304;13.626;2023-05-17T14:08:37;14.40;99.90
40291;DHT22;26000;48.304;13.626;2023-05-17T14:11:02;14.40;99.90
40291;DHT22;26000;48.304;13.626;2023-05-17T14:13:28;14.50;99.90
40291;DHT22;26000;48.304;13.626;2023-05-17T14:15:53;14.50;99.90
40291;DHT22;26000;48.304;13.626;2023-05-17T14:18:19;14.60;99.90
40291;DHT22;26000;48.304;13.626;2023-05-17T14:20:45;14.60;99.90
40291;DHT22;26000;48.304;13.626;2023-05-17T14:23:11;14.60;99.90
40291;DHT22;26000;48.304;13.626;2023-05-17T14:25:37;14.70;99.90
40291;DHT22;26000;48.304;13.626;2023-05-17T14:28:03;14.60;99.90
40291;DHT22;26000;48.304;13.626;2023-05-17T14:30:28;14.60;99.90
40291;DHT22;26000;48.304;13.626;2023-05-17T14:32:54;14.60;99.90
40291;DHT22;26000;48.304;13.626;2023-05-17T14:35:20;14.70;99.90
40291;DHT22;26000;48.304;13.626;2023-05-17T14:37:47;14.80;99.90
40291;DHT22;26000;48.304;13.626;2023-05-17T14:40:12;14.60;99.90
40291;DHT22;26000;48.304;13.626;2023-05-17T14:42:38;14.70;99.90
40291;DHT22;26000;48.304;13.626;2023-05-17T14:45:05;14.60;99.90
40291;DHT22;26000;48.304;13.626;2023-05-17T14:47:31;14.60;99.90
40291;DHT22;26000;48.304;13.626;2023-05-17T14:49:57;14.60;99.90
40291;DHT22;26000;48.304;13.626;2023-05-17T14:52:22;14.60;99.90
40291;DHT22;26000;48.304;13.626;2023-05-17T14:54:48;14.50;99.90
40291;DHT22;26000;48.304;13.626;2023-05-17T14:57:13;14.50;99.90
40291;DHT22;26000;48.304;13.626;2023-05-17T14:59:39;14.50;99.90
40291;DHT22;26000;48.304;13.626;2023-05-17T15:02:06;14.40;99.90
40291;DHT22;26000;48.304;13.626;2023-05-17T15:04:31;14.40;99.90
40291;DHT22;26000;48.304;13.626;2023-05-17T15:06:57;14.50;99.90
40291;DHT22;26000;48.304;13.626;2023-05-17T15:09:23;14.40;99.90
40291;DHT22;26000;48.304;13.626;2023-05-17T15:11:49;14.40;99.90
40291;DHT22;26000;48.304;13.626;2023-05-17T15:14:18;14.30;99.90
40291;DHT22;26000;48.304;13.626;2023-05-17T15:16:47;14.30;99.90
40291;DHT22;26000;48.304;13.626;2023-05-17T15:19:13;14.30;99.90
40291;DHT22;26000;48.304;13.626;2023-05-17T15:21:39;14.30;99.90
40291;DHT22;26000;48.304;13.626;2023-05-17T15:24:05;14.20;99.90
40291;DHT22;26000;48.304;13.626;2023-05-17T15:26:31;14.30;99.90
40291;DHT22;26000;48.304;13.626;2023-05-17T15:28:56;14.30;99.90
40291;DHT22;26000;48.304;13.626;2023-05-17T15:31:22;14.20;99.90
40291;DHT22;26000;48.304;13.626;2023-05-17T15:33:49;14.20;99.90
40291;DHT22;26000;48.304;13.626;2023-05-17T15:36:15;14.20;99.90
40291;DHT22;26000;48.304;13.626;2023-05-17T15:38:41;14.10;99.90
40291;DHT22;26000;48.304;13.626;2023-05-17T15:41:10;14.10;99.90
40291;DHT22;26000;48.304;13.626;2023-05-17T15:43:36;13.90;99.90
40291;DHT22;26000;48.304;13.626;2023-05-17T15:46:02;13.80;99.90